sensor_id;sensor_type;location;lat;lon;timestamp;temperature;humidity
66576;SHT31;53428;47.686;16.584;2022-11-15T07:20:44;7.55;99.99
66576;SHT31;53428;47.686;16.584;2022-11-15T07:37:21;7.86;99.57
66576;SHT31;53428;47.686;16.584;2022-11-15T07:42:20;7.74;99.92
66576;SHT31;53428;47.686;16.584;2022-11-15T07:47:38;7.62;99.99
66576;SHT31;53428;47.686;16.584;2022-11-15T07:52:37;7.65;99.99
66576;SHT31;53428;47.686;16.584;2022-11-15T07:57:37;7.70;99.99
66576;SHT31;53428;47.686;16.584;2022-11-15T08:02:36;7.63;99.99
66576;SHT31;53428;47.686;16.584;2022-11-15T08:07:35;7.65;99.99
66576;SHT31;53428;47.686;16.584;2022-11-15T08:12:36;7.79;99.99
66576;SHT31;53428;47.686;16.584;2022-11-15T08:17:36;8.12;99.54
66576;SHT31;53428;47.686;16.584;2022-11-15T08:22:35;8.15;99.34
66576;SHT31;53428;47.686;16.584;2022-11-15T08:27:35;8.11;99.58
66576;SHT31;53428;47.686;16.584;2022-11-15T08:32:34;8.34;99.43
66576;SHT31;53428;47.686;16.584;2022-11-15T08:37:33;8.37;98.14
66576;SHT31;53428;47.686;16.584;2022-11-15T08:42:33;8.49;98.42
66576;SHT31;53428;47.686;16.584;2022-11-15T08:47:33;8.69;97.39
66576;SHT31;53428;47.686;16.584;2022-11-15T08:52:32;8.79;97.27
66576;SHT31;53428;47.686;16.584;2022-11-15T08:57:31;8.94;95.83
66576;SHT31;53428;47.686;16.584;2022-11-15T09:02:31;9.03;95.52
66576;SHT31;53428;47.686;16.584;2022-11-15T09:07:30;8.93;96.01
66576;SHT31;53428;47.686;16.584;2022-11-15T09:12:30;9.08;95.87
66576;SHT31;53428;47.686;16.584;2022-11-15T09:17:30;8.97;94.99
66576;SHT31;53428;47.686;16.584;2022-11-15T09:22:29;9.08;94.42
66576;SHT31;53428;47.686;16.584;2022-11-15T09:27:29;9.00;95.11
66576;SHT31;53428;47.686;16.584;2022-11-15T09:32:29;9.31;93.60
66576;SHT31;53428;47.686;16.584;2022-11-15T09:37:31;9.28;94.59
66576;SHT31;53428;47.686;16.584;2022-11-15T09:42:52;9.18;95.14
66576;SHT31;53428;47.686;16.584;2022-11-15T09:48:23;9.06;96.26
66576;SHT31;53428;47.686;16.584;2022-11-15T09:53:31;9.28;94.99
66576;SHT31;53428;47.686;16.584;2022-11-15T10:03:55;9.32;94.84
66576;SHT31;53428;47.686;16.584;2022-11-15T10:09:13;9.34;95.40
66576;SHT31;53428;47.686;16.584;2022-11-15T10:14:20;9.34;94.89
66576;SHT31;53428;47.686;16.584;2022-11-15T10:19:31;9.63;94.17
66576;SHT31;53428;47.686;16.584;2022-11-15T10:24:39;9.71;93.42
66576;SHT31;53428;47.686;16.584;2022-11-15T10:29:46;9.92;92.88
66576;SHT31;53428;47.686;16.584;2022-11-15T10:34:48;9.95;92.87
66576;SHT31;53428;47.686;16.584;2022-11-15T10:40:06;9.83;93.22
66576;SHT31;53428;47.686;16.584;2022-11-15T10:45:38;10.37;91.61
66576;SHT31;53428;47.686;16.584;2022-11-15T10:50:41;10.54;90.25
66576;SHT31;53428;47.686;16.584;2022-11-15T10:55:42;10.60;91.88
66576;SHT31;53428;47.686;16.584;2022-11-15T11:00:45;10.60;90.52
66576;SHT31;53428;47.686;16.584;2022-11-15T11:05:45;10.65;91.28
66576;SHT31;53428;47.686;16.584;2022-11-15T11:10:55;10.83;89.54
66576;SHT31;53428;47.686;16.584;2022-11-15T11:16:09;11.56;87.68
66576;SHT31;53428;47.686;16.584;2022-11-15T11:21:26;11.71;87.24
66576;SHT31;53428;47.686;16.584;2022-11-15T11:47:46;16.13;72.56
66576;SHT31;53428;47.686;16.584;2022-11-15T11:52:59;14.61;76.10
66576;SHT31;53428;47.686;16.584;2022-11-15T11:58:17;16.45;71.78
66576;SHT31;53428;47.686;16.584;2022-11-15T12:03:42;16.84;71.50
66576;SHT31;53428;47.686;16.584;2022-11-15T12:08:52;16.82;69.50
66576;SHT31;53428;47.686;16.584;2022-11-15T12:13:58;17.41;67.34
66576;SHT31;53428;47.686;16.584;2022-11-15T12:19:02;15.62;72.68
66576;SHT31;53428;47.686;16.584;2022-11-15T12:24:08;14.68;75.09
66576;SHT31;53428;47.686;16.584;2022-11-15T12:29:16;13.38;79.85
66576;SHT31;53428;47.686;16.584;2022-11-15T12:44:59;11.39;87.91
66576;SHT31;53428;47.686;16.584;2022-11-15T12:49:58;11.73;86.52
66576;SHT31;53428;47.686;16.584;2022-11-15T12:54:59;11.85;85.35
66576;SHT31;53428;47.686;16.584;2022-11-15T13:00:04;11.47;86.75
66576;SHT31;53428;47.686;16.584;2022-11-15T13:20:44;10.71;89.42
66576;SHT31;53428;47.686;16.584;2022-11-15T13:26:10;10.23;91.41
66576;SHT31;53428;47.686;16.584;2022-11-15T13:31:29;10.13;91.83
66576;SHT31;53428;47.686;16.584;2022-11-15T13:36:32;10.17;91.52
66576;SHT31;53428;47.686;16.584;2022-11-15T13:41:36;10.14;91.15
66576;SHT31;53428;47.686;16.584;2022-11-15T13:46:43;10.03;91.85
66576;SHT31;53428;47.686;16.584;2022-11-15T13:51:49;9.92;91.75
66576;SHT31;53428;47.686;16.584;2022-11-15T13:57:04;9.66;92.72
66576;SHT31;53428;47.686;16.584;2022-11-15T14:02:31;9.72;92.50
66576;SHT31;53428;47.686;16.584;2022-11-15T14:07:31;9.62;93.13
66576;SHT31;53428;47.686;16.584;2022-11-15T14:12:33;9.51;93.41
66576;SHT31;53428;47.686;16.584;2022-11-15T14:17:35;9.81;92.46
66576;SHT31;53428;47.686;16.584;2022-11-15T14:22:35;9.62;93.11
66576;SHT31;53428;47.686;16.584;2022-11-15T14:27:36;9.71;92.59
66576;SHT31;53428;47.686;16.584;2022-11-15T14:32:48;9.69;93.08
66576;SHT31;53428;47.686;16.584;2022-11-15T14:37:48;9.71;92.75
66576;SHT31;53428;47.686;16.584;2022-11-15T14:42:49;9.71;93.63
66576;SHT31;53428;47.686;16.584;2022-11-15T14:47:48;9.62;93.46
66576;SHT31;53428;47.686;16.584;2022-11-15T14:52:48;9.66;93.59
66576;SHT31;53428;47.686;16.584;2022-11-15T14:57:47;9.54;93.99
66576;SHT31;53428;47.686;16.584;2022-11-15T15:02:48;9.48;93.97
66576;SHT31;53428;47.686;16.584;2022-11-15T15:07:47;9.52;93.80
66576;SHT31;53428;47.686;16.584;2022-11-15T15:12:47;9.41;94.39
66576;SHT31;53428;47.686;16.584;2022-11-15T15:17:46;9.38;94.81
66576;SHT31;53428;47.686;16.584;2022-11-15T15:22:46;9.37;94.48
66576;SHT31;53428;47.686;16.584;2022-11-15T15:27:45;9.38;94.06
66576;SHT31;53428;47.686;16.584;2022-11-15T15:32:44;9.18;94.69
66576;SHT31;53428;47.686;16.584;2022-11-15T15:37:44;9.20;94.50
66576;SHT31;53428;47.686;16.584;2022-11-15T15:42:44;9.13;95.20
66576;SHT31;53428;47.686;16.584;2022-11-15T15:47:44;9.10;94.86
66576;SHT31;53428;47.686;16.584;2022-11-15T15:52:44;9.06;95.17
66576;SHT31;53428;47.686;16.584;2022-11-15T15:57:43;8.91;95.96
66576;SHT31;53428;47.686;16.584;2022-11-15T16:02:43;8.91;95.94
66576;SHT31;53428;47.686;16.584;2022-11-15T16:07:43;8.99;95.50
66576;SHT31;53428;47.686;16.584;2022-11-15T16:12:42;8.91;96.11
66576;SHT31;53428;47.686;16.584;2022-11-15T16:17:47;8.97;95.61
66576;SHT31;53428;47.686;16.584;2022-11-15T16:22:47;8.87;96.02
66576;SHT31;53428;47.686;16.584;2022-11-15T16:27:46;9.01;95.76
66576;SHT31;53428;47.686;16.584;2022-11-15T16:32:46;8.96;95.66
66576;SHT31;53428;47.686;16.584;2022-11-15T16:37:45;8.94;95.99
66576;SHT31;53428;47.686;16.584;2022-11-15T16:42:45;8.93;96.20
66576;SHT31;53428;47.686;16.584;2022-11-15T16:47:45;8.93;95.98
66576;SHT31;53428;47.686;16.584;2022-11-15T16:52:44;8.94;96.28
66576;SHT31;53428;47.686;16.584;2022-11-15T16:57:43;8.96;95.81
66576;SHT31;53428;47.686;16.584;2022-11-15T17:02:44;9.01;95.47
66576;SHT31;53428;47.686;16.584;2022-11-15T17:07:46;8.91;95.97
66576;SHT31;53428;47.686;16.584;2022-11-15T17:12:48;9.04;95.48
66576;SHT31;53428;47.686;16.584;2022-11-15T17:17:52;8.93;96.16
66576;SHT31;53428;47.686;16.584;2022-11-15T17:22:52;8.96;95.85
66576;SHT31;53428;47.686;16.584;2022-11-15T17:27:51;8.87;96.29
66576;SHT31;53428;47.686;16.584;2022-11-15T17:32:50;8.86;96.40
66576;SHT31;53428;47.686;16.584;2022-11-15T17:38:02;8.90;96.39
66576;SHT31;53428;47.686;16.584;2022-11-15T17:43:04;8.91;96.40
66576;SHT31;53428;47.686;16.584;2022-11-15T17:48:03;8.87;96.66
66576;SHT31;53428;47.686;16.584;2022-11-15T17:53:03;8.79;97.00
66576;SHT31;53428;47.686;16.584;2022-11-15T17:58:02;8.99;96.63
66576;SHT31;53428;47.686;16.584;2022-11-15T18:03:01;8.87;96.91
66576;SHT31;53428;47.686;16.584;2022-11-15T18:08:00;8.75;97.68
66576;SHT31;53428;47.686;16.584;2022-11-15T18:13:00;8.79;97.57
66576;SHT31;53428;47.686;16.584;2022-11-15T18:17:59;8.94;96.95
66576;SHT31;53428;47.686;16.584;2022-11-15T18:22:58;8.90;97.02
66576;SHT31;53428;47.686;16.584;2022-11-15T18:27:57;8.83;97.89
66576;SHT31;53428;47.686;16.584;2022-11-15T18:32:57;8.83;98.19
66576;SHT31;53428;47.686;16.584;2022-11-15T18:37:56;8.90;98.04
66576;SHT31;53428;47.686;16.584;2022-11-15T18:42:55;8.90;98.64
66576;SHT31;53428;47.686;16.584;2022-11-15T18:47:55;8.94;98.83
66576;SHT31;53428;47.686;16.584;2022-11-15T18:52:54;8.90;99.06
66576;SHT31;53428;47.686;16.584;2022-11-15T18:57:55;8.83;99.76
66576;SHT31;53428;47.686;16.584;2022-11-15T19:02:54;8.83;99.99
66576;SHT31;53428;47.686;16.584;2022-11-15T19:07:53;8.73;99.99
66576;SHT31;53428;47.686;16.584;2022-11-15T19:12:53;8.72;99.99
66576;SHT31;53428;47.686;16.584;2022-11-15T19:17:53;8.72;99.99
66576;SHT31;53428;47.686;16.584;2022-11-15T19:22:52;8.68;99.99
66576;SHT31;53428;47.686;16.584;2022-11-15T19:27:51;8.66;99.99
66576;SHT31;53428;47.686;16.584;2022-11-15T19:32:51;8.63;99.99
66576;SHT31;53428;47.686;16.584;2022-11-15T19:37:50;8.58;99.99
66576;SHT31;53428;47.686;16.584;2022-11-15T19:42:49;8.56;99.99
66576;SHT31;53428;47.686;16.584;2022-11-15T19:47:49;8.51;99.99
66576;SHT31;53428;47.686;16.584;2022-11-15T19:52:48;8.49;99.99
66576;SHT31;53428;47.686;16.584;2022-11-15T19:57:47;8.55;99.99
66576;SHT31;53428;47.686;16.584;2022-11-15T20:02:46;8.55;99.99
66576;SHT31;53428;47.686;16.584;2022-11-15T20:07:49;8.53;99.99
66576;SHT31;53428;47.686;16.584;2022-11-15T20:12:48;8.58;99.99
66576;SHT31;53428;47.686;16.584;2022-11-15T20:17:47;8.55;99.99
66576;SHT31;53428;47.686;16.584;2022-11-15T20:22:47;8.52;99.99
66576;SHT31;53428;47.686;16.584;2022-11-15T20:27:46;8.52;99.99
66576;SHT31;53428;47.686;16.584;2022-11-15T20:32:45;8.48;99.99
66576;SHT31;53428;47.686;16.584;2022-11-15T20:37:45;8.51;99.99
66576;SHT31;53428;47.686;16.584;2022-11-15T20:42:44;8.48;99.99
66576;SHT31;53428;47.686;16.584;2022-11-15T20:47:47;8.52;99.99
66576;SHT31;53428;47.686;16.584;2022-11-15T20:52:47;8.51;99.99
66576;SHT31;53428;47.686;16.584;2022-11-15T20:57:50;8.55;99.99
66576;SHT31;53428;47.686;16.584;2022-11-15T21:02:50;8.55;99.99
66576;SHT31;53428;47.686;16.584;2022-11-15T21:07:50;8.53;99.99
66576;SHT31;53428;47.686;16.584;2022-11-15T21:12:49;8.44;99.99
66576;SHT31;53428;47.686;16.584;2022-11-15T21:17:48;8.52;99.99
66576;SHT31;53428;47.686;16.584;2022-11-15T21:22:48;8.55;99.99
66576;SHT31;53428;47.686;16.584;2022-11-15T21:27:47;8.55;99.99
66576;SHT31;53428;47.686;16.584;2022-11-15T21:32:46;8.56;99.99
66576;SHT31;53428;47.686;16.584;2022-11-15T21:37:46;8.53;99.99
66576;SHT31;53428;47.686;16.584;2022-11-15T21:42:45;8.52;99.99
66576;SHT31;53428;47.686;16.584;2022-11-15T21:47:44;8.55;99.99
66576;SHT31;53428;47.686;16.584;2022-11-15T21:52:44;8.69;99.99
66576;SHT31;53428;47.686;16.584;2022-11-15T21:57:44;8.63;99.99
66576;SHT31;53428;47.686;16.584;2022-11-15T22:02:44;8.60;99.99
66576;SHT31;53428;47.686;16.584;2022-11-15T22:07:43;8.68;99.99
66576;SHT31;53428;47.686;16.584;2022-11-15T22:12:42;8.68;99.99
66576;SHT31;53428;47.686;16.584;2022-11-15T22:17:42;8.63;99.99
66576;SHT31;53428;47.686;16.584;2022-11-15T22:22:57;8.63;99.99
66576;SHT31;53428;47.686;16.584;2022-11-15T22:27:56;8.63;99.99
66576;SHT31;53428;47.686;16.584;2022-11-15T22:32:56;8.63;99.99
66576;SHT31;53428;47.686;16.584;2022-11-15T22:37:55;8.68;99.99
66576;SHT31;53428;47.686;16.584;2022-11-15T22:42:54;8.70;99.99
66576;SHT31;53428;47.686;16.584;2022-11-15T22:47:54;8.70;99.99
66576;SHT31;53428;47.686;16.584;2022-11-15T22:52:53;8.73;99.99
66576;SHT31;53428;47.686;16.584;2022-11-15T22:57:52;8.73;99.99
66576;SHT31;53428;47.686;16.584;2022-11-15T23:02:52;8.70;99.99
66576;SHT31;53428;47.686;16.584;2022-11-15T23:07:51;8.70;99.99
66576;SHT31;53428;47.686;16.584;2022-11-15T23:12:51;8.66;99.99
66576;SHT31;53428;47.686;16.584;2022-11-15T23:18:08;8.68;99.99
66576;SHT31;53428;47.686;16.584;2022-11-15T23:23:08;8.60;99.99
66576;SHT31;53428;47.686;16.584;2022-11-15T23:28:07;8.59;99.99
66576;SHT31;53428;47.686;16.584;2022-11-15T23:33:12;8.62;99.99
66576;SHT31;53428;47.686;16.584;2022-11-15T23:38:32;8.58;99.99
66576;SHT31;53428;47.686;16.584;2022-11-15T23:43:32;8.56;99.99
66576;SHT31;53428;47.686;16.584;2022-11-15T23:48:32;8.60;99.99
66576;SHT31;53428;47.686;16.584;2022-11-15T23:53:31;8.60;99.99
66576;SHT31;53428;47.686;16.584;2022-11-15T23:58:30;8.56;99.99
